Houston, Texas
Traffic Map
Current Weather Conditions
Houston, Texas
Clear
Clear
23°
Feels Like: 23°
Wind Chill: 23° Ceiling: Unl
Heat Index: 23° Visibility: 10mi
Dew Point: 19° Wind: 7mph
Humidity: 78% Direction: 160° (SSE)
Pressure: 29.95in Gusts: 0mph
Raw Report DataKMCJ 010055Z AUTO 16006KT 10SM CLR 23/19 A2995 RMK AO1
Traffic Incident Summary
Active as of:
Severity:
Category:
InformationThere was an issue retrieving the traffic information for this location. Please try a different location or try again shortly.
Advertisements
Track Severe Weather on mobile